Search for airport 
image banner adimage banner adimage banner ad
image banner ad

IA83 - Kohlhaas

Located in Livermore, United States

ICAO - IA83, IATA -

Data provided by Airmate  

General information

Coordinates: N42°57'18" W94°10'3"
Elevation is 1155 feet MSL.
Magnetic variation is 04° East
View others Airports in Iowa

Operational data

Special qualification required
Current time UTC:
Current local time:
Weather at : KAXA - Algona Muni ( 16 km )
METAR: KAXA 181655Z AUTO VRB04G10KT 10SM CLR 30/12 A2987 RMK A01
View NOTAMs / SUP AIP / TFR affecting this airport [VIEW]
Communications frequencies: [VIEW]

Runways:

RWY identifierQFULength (ft)Width (ft)SurfaceLDA (ft)
17180°255080GRASS
35360°255080GRASS

Airport contact information

Address: Livermore United States

Satellite view of IA83